Time;durP1;ratioP1;P1;durP2;ratioP2;P2;SDS_P1;SDS_P2;PMS_P1;PMS_P2;Temp;Humidity;BMP_temperature;BMP_pressure;BME280_temperature;BME280_humidity;BME280_pressure;Samples;Min_cycle;Max_cycle;Signal;HPM_P1;HPM_P2
2022/01/01 00:00:42;;;;;;;;;40.50;32.50;;;;;18.81;78.65;102207.56;5060698;28;61828;-76
2022/01/01 00:03:07;;;;;;;;;32.75;31.00;;;;;18.79;78.49;102211.94;5063254;28;61798;-76
2022/01/01 00:05:33;;;;;;;;;44.75;35.00;;;;;18.81;78.27;102220.88;5062439;28;62712;-76
2022/01/01 00:08:00;;;;;;;;;40.25;34.25;;;;;18.84;78.52;102220.97;5062969;28;61883;-76
2022/01/01 00:10:26;;;;;;;;;33.50;31.75;;;;;18.86;78.63;102211.28;5062892;28;62060;-76
2022/01/01 00:12:51;;;;;;;;;31.25;28.00;;;;;18.90;78.54;102210.53;5078747;28;62219;-76
2022/01/01 00:15:17;;;;;;;;;46.00;34.50;;;;;18.91;78.37;102214.97;5077831;28;63706;-76
2022/01/01 00:17:43;;;;;;;;;47.00;37.75;;;;;18.92;78.39;102215.91;5062722;28;61921;-76
2022/01/01 00:20:10;;;;;;;;;45.50;36.75;;;;;18.87;78.80;102218.38;5078506;28;62046;-76
2022/01/01 00:22:40;;;;;;;;;37.50;31.50;;;;;18.90;78.42;102223.81;5078284;27;62169;-76
2022/01/01 00:25:07;;;;;;;;;33.75;31.75;;;;;18.59;79.20;102214.78;5077283;28;63955;-76
2022/01/01 00:27:32;;;;;;;;;35.50;32.75;;;;;18.88;78.69;102212.22;5062549;28;61843;-76
2022/01/01 00:29:58;;;;;;;;;56.00;39.25;;;;;18.89;78.70;102214.03;5062737;28;61809;-76
2022/01/01 00:32:23;;;;;;;;;27.25;20.75;;;;;18.89;78.66;102205.16;5057764;28;62033;-76
2022/01/01 00:34:50;;;;;;;;;28.75;26.75;;;;;18.91;78.67;102208.75;5041902;28;62096;-76
2022/01/01 00:37:17;;;;;;;;;34.75;29.00;;;;;18.92;78.45;102213.25;5041880;28;61849;-76
2022/01/01 00:39:42;;;;;;;;;40.00;31.50;;;;;18.90;78.52;102215.84;5058010;28;61957;-76
2022/01/01 00:42:08;;;;;;;;;30.00;25.00;;;;;18.84;78.45;102205.00;5042543;28;61758;-76
2022/01/01 00:44:33;;;;;;;;;33.75;25.50;;;;;18.88;78.21;102212.22;5041521;28;61828;-76
2022/01/01 00:46:58;;;;;;;;;44.00;31.50;;;;;18.86;78.39;102215.69;5042085;28;61794;-76
2022/01/01 00:49:25;;;;;;;;;34.25;30.25;;;;;18.86;78.11;102216.59;5057590;28;62455;-76
2022/01/01 00:51:50;;;;;;;;;42.75;33.25;;;;;18.88;78.02;102222.88;5041116;28;62144;-76
2022/01/01 00:54:16;;;;;;;;;36.25;28.50;;;;;18.90;77.96;102222.94;5041590;28;62646;-76
2022/01/01 00:56:41;;;;;;;;;32.00;26.25;;;;;18.88;78.40;102214.00;5041791;28;61792;-76
2022/01/01 00:59:07;;;;;;;;;36.00;28.75;;;;;18.86;78.12;102218.34;5042230;28;61952;-76
2022/01/01 01:01:32;;;;;;;;;37.00;30.00;;;;;18.84;77.76;102215.63;5041884;28;62066;-76
2022/01/01 01:03:58;;;;;;;;;32.25;26.00;;;;;18.80;78.15;102203.09;5041575;28;61899;-76
2022/01/01 01:06:23;;;;;;;;;32.00;28.50;;;;;18.80;78.25;102198.66;5042084;28;62332;-76
2022/01/01 01:08:51;;;;;;;;;38.00;28.00;;;;;18.82;77.84;102196.06;5040534;28;61853;-76
2022/01/01 01:11:16;;;;;;;;;38.50;28.75;;;;;18.83;77.73;102202.28;5042214;28;62169;-76
2022/01/01 01:13:45;;;;;;;;;33.00;26.50;;;;;18.78;77.77;102207.44;5048045;28;61924;-76
2022/01/01 01:16:10;;;;;;;;;29.00;25.50;;;;;18.77;77.89;102200.31;5063856;28;61977;-76
2022/01/01 01:18:36;;;;;;;;;35.25;30.50;;;;;18.72;77.90;102201.88;5047084;28;61781;-76
2022/01/01 01:21:01;;;;;;;;;33.00;27.25;;;;;18.73;78.06;102195.72;5064132;28;61757;-76
2022/01/01 01:23:27;;;;;;;;;30.50;29.25;;;;;18.68;77.96;102199.97;5046636;28;64779;-76
2022/01/01 01:25:54;;;;;;;;;34.25;28.75;;;;;18.53;78.57;102198.63;5048110;28;61962;-76
2022/01/01 01:28:20;;;;;;;;;40.75;33.75;;;;;18.18;79.28;102195.59;5047257;28;61893;-76
2022/01/01 01:30:46;;;;;;;;;43.00;30.50;;;;;18.47;78.76;102198.41;5046848;28;61848;-76
2022/01/01 01:33:12;;;;;;;;;29.25;26.00;;;;;18.44;78.13;102187.63;5058871;28;61874;-76
2022/01/01 01:35:38;;;;;;;;;34.00;30.50;;;;;18.41;78.16;102200.84;5068032;28;61954;-76
2022/01/01 01:38:03;;;;;;;;;37.00;29.00;;;;;18.32;78.59;102195.22;5068370;28;61765;-76
2022/01/01 01:40:29;;;;;;;;;25.75;24.25;;;;;18.31;78.51;102201.38;5068790;28;61723;-76
2022/01/01 01:42:54;;;;;;;;;35.50;32.25;;;;;18.25;78.54;102199.38;5067764;28;61732;-76
2022/01/01 01:45:22;;;;;;;;;37.75;28.25;;;;;18.21;78.57;102202.81;5068212;28;61729;-76
2022/01/01 01:47:49;;;;;;;;;28.50;24.25;;;;;17.88;79.70;102197.16;5068429;28;61778;-76
2022/01/01 01:50:18;;;;;;;;;40.75;35.25;;;;;18.11;78.87;102208.63;5068580;28;61992;-76
2022/01/01 01:52:55;;;;;;;;;39.25;33.50;;;;;18.04;79.10;102195.94;5067250;28;61956;-76
2022/01/01 01:55:21;;;;;;;;;36.75;29.50;;;;;17.91;79.36;102197.25;5067958;28;61683;-76
2022/01/01 01:57:46;;;;;;;;;45.25;38.75;;;;;17.89;79.24;102198.97;5066986;28;61946;-76
2022/01/01 02:01:20;;;;;;;;;44.25;37.25;;;;;17.81;79.46;102203.94;5068501;28;61762;-76
2022/01/01 02:03:05;;;;;;;;;34.25;29.50;;;;;17.78;79.44;102204.75;5063401;28;61904;-76
2022/01/01 02:05:34;;;;;;;;;41.75;37.25;;;;;17.77;79.27;102202.94;5066848;28;61838;-76
2022/01/01 02:07:59;;;;;;;;;40.25;33.50;;;;;17.68;79.43;102202.59;5067887;28;61844;-76
2022/01/01 02:10:25;;;;;;;;;43.00;38.50;;;;;17.67;79.64;102208.72;5068482;28;61964;-76
2022/01/01 02:12:54;;;;;;;;;42.00;35.75;;;;;17.69;79.48;102211.44;5067271;28;61854;-76
2022/01/01 02:15:59;;;;;;;;;46.50;35.25;;;;;17.71;79.15;102209.75;5067851;28;61741;-76
2022/01/01 02:18:25;;;;;;;;;45.25;37.25;;;;;17.62;79.36;102204.09;5068081;28;61893;-76
2022/01/01 02:20:50;;;;;;;;;47.00;36.75;;;;;17.55;79.72;102213.59;5068003;28;62139;-76
2022/01/01 02:23:26;;;;;;;;;38.25;36.75;;;;;17.57;79.38;102203.94;5064856;28;62780;-76
2022/01/01 02:25:53;;;;;;;;;45.00;37.50;;;;;17.57;79.36;102204.84;5062769;28;61716;-76
2022/01/01 02:28:19;;;;;;;;;48.00;38.25;;;;;17.54;79.63;102196.72;5063174;28;62046;-76
2022/01/01 02:30:45;;;;;;;;;52.50;41.50;;;;;17.11;80.70;102199.44;5063261;28;61845;-76
2022/01/01 02:33:10;;;;;;;;;52.25;41.00;;;;;17.47;79.84;102194.69;5063613;28;62839;-76
2022/01/01 02:35:36;;;;;;;;;44.75;37.75;;;;;17.47;79.64;102196.47;5079877;27;62066;-76
2022/01/01 02:38:01;;;;;;;;;40.25;36.00;;;;;17.47;79.71;102194.69;5064060;28;61858;-76
2022/01/01 02:40:27;;;;;;;;;43.25;36.50;;;;;17.42;79.80;102188.31;5064754;28;61780;-76
2022/01/01 02:42:54;;;;;;;;;47.50;36.00;;;;;17.43;79.77;102183.91;5078871;28;63619;-76
2022/01/01 02:45:20;;;;;;;;;36.25;33.75;;;;;17.38;79.62;102171.34;5064371;28;61816;-76
2022/01/01 02:47:46;;;;;;;;;42.00;36.00;;;;;17.42;79.71;102174.13;5064430;28;61945;-76
2022/01/01 02:50:12;;;;;;;;;37.25;34.00;;;;;17.40;79.82;102175.84;5064246;28;61831;-76
2022/01/01 02:52:37;;;;;;;;;51.25;31.75;;;;;17.35;80.01;102175.63;5078991;28;63779;-76
2022/01/01 02:55:05;;;;;;;;;38.25;30.25;;;;;17.36;79.75;102188.06;5063499;28;61988;-76
2022/01/01 02:57:31;;;;;;;;;36.50;31.25;;;;;17.33;79.89;102186.22;5064041;28;61854;-76
2022/01/01 02:59:56;;;;;;;;;42.50;36.25;;;;;17.31;79.66;102189.63;5064189;28;61769;-76
2022/01/01 03:02:21;;;;;;;;;38.75;35.25;;;;;17.26;79.59;102178.81;5063425;28;62783;-76
2022/01/01 03:04:47;;;;;;;;;38.00;29.50;;;;;17.27;79.86;102193.94;5063815;28;61934;-76
2022/01/01 03:07:12;;;;;;;;;36.50;31.50;;;;;17.24;80.09;102188.47;5063609;28;61756;-76
2022/01/01 03:09:38;;;;;;;;;34.25;27.50;;;;;17.24;79.89;102187.59;5064280;28;61933;-76
2022/01/01 03:12:08;;;;;;;;;35.00;30.25;;;;;17.17;80.21;102187.34;5062932;28;61924;-76
2022/01/01 03:14:35;;;;;;;;;34.50;30.75;;;;;17.14;80.35;102192.53;5063733;28;61884;-76
2022/01/01 03:17:00;;;;;;;;;32.50;30.25;;;;;17.15;80.25;102194.31;5063801;28;61811;-76
2022/01/01 03:19:26;;;;;;;;;39.00;32.25;;;;;17.12;80.09;102198.63;5079541;27;61896;-76
2022/01/01 03:21:52;;;;;;;;;41.25;30.25;;;;;17.09;80.30;102188.78;5062996;28;61765;-76
2022/01/01 03:24:17;;;;;;;;;45.25;34.75;;;;;17.09;80.24;102187.88;5079143;28;61990;-76
2022/01/01 03:26:43;;;;;;;;;43.75;33.75;;;;;17.11;80.27;102191.50;5063115;28;61773;-76
2022/01/01 03:29:08;;;;;;;;;37.25;29.50;;;;;17.11;80.14;102197.69;5063752;28;61812;-76
2022/01/01 03:31:34;;;;;;;;;52.00;31.50;;;;;17.09;80.29;102199.38;5078576;28;63852;-76
2022/01/01 03:33:59;;;;;;;;;30.75;27.25;;;;;17.12;80.18;102199.53;5063055;28;61973;-76
2022/01/01 03:36:26;;;;;;;;;30.75;28.00;;;;;17.10;80.58;102190.59;5063032;28;61925;-76
2022/01/01 03:38:52;;;;;;;;;36.25;28.50;;;;;17.11;80.13;102189.75;5079323;28;61753;-76
2022/01/01 03:41:17;;;;;;;;;35.75;26.25;;;;;17.10;80.13;102184.41;5062329;28;62506;-76
2022/01/01 03:43:43;;;;;;;;;39.75;30.50;;;;;17.09;80.22;102186.13;5063531;28;61872;-76
2022/01/01 03:46:09;;;;;;;;;37.25;28.75;;;;;17.07;80.31;102182.50;5061868;28;61947;-76
2022/01/01 03:48:34;;;;;;;;;34.25;28.25;;;;;17.03;80.29;102179.66;5063545;28;61774;-76
2022/01/01 03:50:59;;;;;;;;;32.25;29.25;;;;;16.99;80.40;102176.00;5062665;28;62753;-76
2022/01/01 03:53:25;;;;;;;;;31.00;27.50;;;;;16.99;80.45;102181.31;5063113;28;62115;-76
2022/01/01 03:55:51;;;;;;;;;31.25;26.00;;;;;17.02;80.37;102191.13;5062956;28;61964;-76
2022/01/01 03:58:17;;;;;;;;;27.50;21.25;;;;;16.96;80.43;102186.47;5063294;28;62120;-76
2022/01/01 04:00:42;;;;;;;;;33.00;28.50;;;;;16.95;80.24;102188.22;5062696;28;62785;-76
2022/01/01 04:03:10;;;;;;;;;33.25;29.75;;;;;16.97;80.44;102190.94;5063047;28;61908;-76
2022/01/01 04:05:37;;;;;;;;;24.00;20.50;;;;;16.94;80.53;102189.06;5063152;28;61781;-76
2022/01/01 04:08:03;;;;;;;;;29.75;26.50;;;;;16.92;80.68;102179.22;5061665;28;62090;-76
2022/01/01 04:10:31;;;;;;;;;33.50;26.75;;;;;16.92;80.51;102179.22;5060831;28;63588;-76
2022/01/01 04:12:59;;;;;;;;;30.75;28.75;;;;;16.93;80.33;102186.34;5061717;28;61832;-76
2022/01/01 04:15:27;;;;;;;;;33.75;27.75;;;;;16.86;80.70;102182.56;5062697;28;62193;-76
2022/01/01 04:17:57;;;;;;;;;28.75;26.25;;;;;16.84;80.66;102173.63;5061663;28;61990;-76
2022/01/01 04:20:23;;;;;;;;;22.50;20.50;;;;;16.84;80.64;102175.34;5062272;28;61846;-76
2022/01/01 04:22:48;;;;;;;;;35.25;26.75;;;;;16.82;80.58;102172.66;5061314;28;62090;-76
2022/01/01 04:25:14;;;;;;;;;26.25;23.75;;;;;16.81;80.58;102170.84;5062331;28;61757;-76
2022/01/01 04:27:39;;;;;;;;;32.50;28.75;;;;;16.75;80.93;102170.53;5062914;28;61856;-76
2022/01/01 04:30:05;;;;;;;;;34.75;27.25;;;;;16.70;80.90;102156.19;5062095;28;61836;-76
2022/01/01 04:32:30;;;;;;;;;30.75;25.25;;;;;16.71;80.93;102160.66;5062369;28;62011;-76
2022/01/01 04:34:56;;;;;;;;;32.00;29.75;;;;;16.69;81.02;102152.66;5062798;28;61794;-76
2022/01/01 04:37:21;;;;;;;;;35.50;26.50;;;;;16.67;80.74;102141.06;5062118;28;61724;-76
2022/01/01 04:39:51;;;;;;;;;29.25;25.75;;;;;16.68;80.83;102155.22;5061744;28;62770;-76
2022/01/01 04:42:17;;;;;;;;;28.25;23.00;;;;;16.59;80.95;102157.50;5062518;28;61796;-76
2022/01/01 04:44:42;;;;;;;;;16.00;11.00;;;;;16.56;80.78;102167.13;5078101;27;61898;-76
2022/01/01 04:47:08;;;;;;;;;38.25;27.75;;;;;16.56;81.18;102168.91;5077653;28;61798;-77
2022/01/01 04:49:33;;;;;;;;;31.25;29.00;;;;;16.48;81.32;102165.91;5061689;28;62592;-76
2022/01/01 04:51:59;;;;;;;;;26.25;25.00;;;;;16.46;81.30;102167.59;5077917;27;62151;-76
2022/01/01 04:54:25;;;;;;;;;30.75;25.75;;;;;16.45;81.28;102165.78;5062108;28;62092;-76
2022/01/01 04:56:50;;;;;;;;;33.50;28.75;;;;;16.43;81.17;102169.19;5077734;28;61754;-76
2022/01/01 04:59:16;;;;;;;;;36.00;24.75;;;;;16.39;81.36;102175.19;5061745;28;62167;-76
2022/01/01 05:01:42;;;;;;;;;33.25;30.75;;;;;16.29;81.58;102165.97;5062224;28;61697;-76
2022/01/01 05:04:09;;;;;;;;;35.25;26.75;;;;;16.28;81.77;102170.38;5062351;28;61927;-76
2022/01/01 05:06:34;;;;;;;;;23.75;21.50;;;;;16.33;81.71;102174.09;5062079;28;61972;-76
2022/01/01 05:09:00;;;;;;;;;26.75;20.50;;;;;16.36;81.40;102176.88;5077042;28;64734;-76
2022/01/01 05:11:26;;;;;;;;;38.75;27.25;;;;;16.37;81.16;102180.44;5062065;28;61898;-76
2022/01/01 05:13:53;;;;;;;;;33.75;30.50;;;;;16.42;81.25;102185.94;5077707;28;61911;-76
2022/01/01 05:16:19;;;;;;;;;28.75;21.75;;;;;16.32;81.10;102187.28;5062299;28;62087;-76
2022/01/01 05:18:46;;;;;;;;;36.00;30.25;;;;;16.26;81.60;102185.28;5076951;28;63739;-76
2022/01/01 05:21:12;;;;;;;;;32.25;27.50;;;;;16.31;81.23;102186.38;5061966;28;61895;-76
2022/01/01 05:23:38;;;;;;;;;32.00;27.50;;;;;16.29;81.39;102179.22;5061810;28;61813;-76
2022/01/01 05:26:03;;;;;;;;;33.00;30.00;;;;;16.26;81.23;102176.41;5061924;28;61936;-76
2022/01/01 05:28:29;;;;;;;;;41.75;30.25;;;;;16.22;81.95;102179.78;5061194;28;61745;-76
2022/01/01 05:30:54;;;;;;;;;35.25;32.00;;;;;16.15;81.56;102168.94;5061964;28;61921;-76
2022/01/01 05:33:20;;;;;;;;;28.00;26.00;;;;;16.11;81.85;102179.28;5061779;28;61785;-76
2022/01/01 05:35:45;;;;;;;;;33.50;29.00;;;;;16.09;81.61;102170.41;5060466;28;62182;-76
2022/01/01 05:38:11;;;;;;;;;31.50;26.25;;;;;16.09;81.42;102178.34;5076013;28;63494;-76
2022/01/01 05:40:36;;;;;;;;;32.25;26.00;;;;;16.04;81.61;102166.63;5060261;28;61857;-76
2022/01/01 05:43:01;;;;;;;;;37.75;20.75;;;;;16.11;81.47;102180.22;5062085;28;61967;-76
2022/01/01 05:45:27;;;;;;;;;30.00;22.50;;;;;16.14;81.29;102163.56;5060607;28;61873;-76
2022/01/01 05:47:52;;;;;;;;;25.75;21.00;;;;;16.15;81.13;102165.34;5060989;28;62754;-76
2022/01/01 05:50:20;;;;;;;;;28.25;23.00;;;;;16.17;80.92;102165.41;5061783;28;61753;-76
2022/01/01 05:52:46;;;;;;;;;25.00;23.75;;;;;16.17;80.92;102171.63;5060953;28;61872;-76
2022/01/01 05:55:11;;;;;;;;;27.25;22.50;;;;;16.18;80.97;102169.91;5061634;28;61886;-76
2022/01/01 05:57:37;;;;;;;;;27.75;24.00;;;;;16.14;80.87;102164.44;5060981;28;62635;-76
2022/01/01 06:00:07;;;;;;;;;23.75;18.75;;;;;16.18;80.62;102164.59;5064528;28;61678;-76
2022/01/01 06:02:40;;;;;;;;;27.75;21.50;;;;;16.13;80.57;102154.72;5064063;28;62006;-76
2022/01/01 06:05:06;;;;;;;;;22.75;18.25;;;;;16.12;80.49;102147.59;5063791;28;62032;-76
2022/01/01 06:07:32;;;;;;;;;25.00;21.00;;;;;16.10;80.42;102156.31;5063904;28;61852;-76
2022/01/01 06:09:57;;;;;;;;;27.00;20.50;;;;;16.08;80.45;102158.88;5063374;28;61925;-76
2022/01/01 06:12:23;;;;;;;;;19.50;17.50;;;;;16.09;80.16;102166.00;5063637;28;61883;-76
2022/01/01 06:14:48;;;;;;;;;22.00;18.25;;;;;16.08;80.41;102165.94;5064728;28;62046;-76
2022/01/01 06:17:14;;;;;;;;;28.25;23.50;;;;;16.06;80.14;102168.50;5064076;28;61790;-76
2022/01/01 06:19:39;;;;;;;;;25.75;22.75;;;;;16.02;80.28;102163.91;5064651;28;61795;-76
2022/01/01 06:22:04;;;;;;;;;25.00;21.00;;;;;16.02;80.26;102157.69;5064366;28;61674;-76
2022/01/01 06:24:30;;;;;;;;;24.25;21.50;;;;;15.99;80.00;102155.84;5064966;28;62131;-76
2022/01/01 06:26:55;;;;;;;;;22.50;19.25;;;;;15.92;80.28;102143.16;5063520;28;61705;-76
2022/01/01 06:29:21;;;;;;;;;24.00;19.50;;;;;15.90;80.01;102158.97;5063260;28;61876;-76
2022/01/01 06:31:46;;;;;;;;;22.25;19.75;;;;;15.91;80.29;102160.78;5064501;28;61800;-76
2022/01/01 06:34:12;;;;;;;;;25.75;22.00;;;;;15.90;80.24;102166.03;5064534;28;61952;-76
2022/01/01 06:36:37;;;;;;;;;26.00;16.25;;;;;15.86;80.66;102154.38;5063326;28;62109;-76
2022/01/01 06:39:04;;;;;;;;;21.25;16.75;;;;;15.86;80.25;102151.72;5064172;28;61853;-76
2022/01/01 06:41:29;;;;;;;;;22.50;18.25;;;;;15.85;80.26;102159.59;5064610;28;62445;-76
2022/01/01 06:43:55;;;;;;;;;19.25;14.75;;;;;15.86;80.08;102154.38;5064454;28;61995;-76
2022/01/01 06:46:21;;;;;;;;;20.00;13.25;;;;;15.84;80.17;102158.69;5063796;28;61957;-76
2022/01/01 06:48:47;;;;;;;;;20.75;18.25;;;;;15.80;80.29;102154.09;5064214;28;62030;-76
2022/01/01 06:51:12;;;;;;;;;27.25;21.75;;;;;15.79;80.54;102154.97;5064149;28;61932;-76
2022/01/01 06:53:38;;;;;;;;;30.00;24.50;;;;;15.76;80.35;102152.16;5064423;28;62028;-76
2022/01/01 06:56:05;;;;;;;;;24.00;19.00;;;;;15.73;80.57;102165.25;5078649;28;64748;-76
2022/01/01 06:58:32;;;;;;;;;25.25;19.75;;;;;15.75;80.33;102155.66;5064336;28;61864;-76
2022/01/01 07:00:57;;;;;;;;;26.50;22.00;;;;;15.71;80.48;102164.25;5064118;28;61727;-76
2022/01/01 07:03:23;;;;;;;;;17.25;16.25;;;;;15.69;80.78;102152.69;5063950;28;61773;-77
2022/01/01 07:05:49;;;;;;;;;22.25;18.00;;;;;15.70;80.49;102159.78;5063650;28;62534;-76
2022/01/01 07:08:14;;;;;;;;;24.25;21.50;;;;;15.71;80.48;102157.25;5063827;28;62155;-76
2022/01/01 07:10:41;;;;;;;;;22.75;19.00;;;;;15.69;80.40;102148.28;5063604;28;61757;-76
2022/01/01 07:13:07;;;;;;;;;26.25;18.75;;;;;15.66;80.50;102155.16;5079502;28;61832;-76
2022/01/01 07:15:32;;;;;;;;;22.25;20.25;;;;;15.69;80.49;102150.03;5063237;28;61893;-76
2022/01/01 07:17:58;;;;;;;;;24.50;21.00;;;;;15.66;80.26;102156.09;5063646;28;61776;-76
2022/01/01 07:20:23;;;;;;;;;32.25;24.00;;;;;15.59;80.48;102153.09;5063938;28;61784;-76
2022/01/01 07:22:49;;;;;;;;;21.75;19.00;;;;;15.59;80.63;102161.94;5063796;28;61776;-77
2022/01/01 07:25:15;;;;;;;;;30.00;22.00;;;;;15.62;80.50;102159.44;5078379;28;63584;-76
2022/01/01 07:27:42;;;;;;;;;27.00;21.75;;;;;15.64;80.43;102156.84;5063982;28;61872;-77
2022/01/01 07:30:08;;;;;;;;;28.25;22.25;;;;;15.62;80.56;102162.09;5063504;28;61757;-76
2022/01/01 07:32:40;;;;;;;;;28.25;23.25;;;;;15.61;80.44;102165.56;5063483;28;61788;-76
2022/01/01 07:35:06;;;;;;;;;38.00;28.00;;;;;15.52;80.47;102159.84;5061491;28;63822;-76
2022/01/01 07:37:32;;;;;;;;;28.25;21.75;;;;;15.51;80.61;102166.88;5061667;28;61909;-76
2022/01/01 07:39:57;;;;;;;;;24.75;21.50;;;;;15.48;80.54;102161.44;5063511;28;62322;-76
2022/01/01 07:42:22;;;;;;;;;28.25;25.00;;;;;15.44;80.52;102155.94;5063615;28;61864;-76
2022/01/01 07:44:48;;;;;;;;;28.00;23.75;;;;;15.39;80.89;102158.38;5061346;28;63631;-76
2022/01/01 07:47:13;;;;;;;;;23.25;19.00;;;;;15.38;80.73;102147.72;5061575;28;61764;-76
2022/01/01 07:49:38;;;;;;;;;33.25;30.00;;;;;15.37;80.75;102156.50;5062139;28;62112;-76
2022/01/01 07:52:04;;;;;;;;;34.00;25.50;;;;;15.40;80.90;102160.16;5063192;28;62018;-76
2022/01/01 07:54:30;;;;;;;;;32.25;27.75;;;;;15.35;81.03;102161.72;5062611;28;62576;-76
2022/01/01 07:56:55;;;;;;;;;22.50;18.25;;;;;15.32;81.05;102164.22;5061616;28;61928;-76
2022/01/01 07:59:20;;;;;;;;;29.50;27.75;;;;;15.33;80.77;102161.63;5063150;28;62090;-76
2022/01/01 08:01:46;;;;;;;;;25.25;24.00;;;;;15.33;80.70;102164.28;5061763;28;61828;-76
2022/01/01 08:04:11;;;;;;;;;28.00;23.00;;;;;15.28;80.70;102156.97;5060912;28;64792;-76
2022/01/01 08:06:36;;;;;;;;;18.25;18.25;;;;;15.29;80.94;102169.34;5062923;28;62027;-76
2022/01/01 08:09:03;;;;;;;;;37.50;27.50;;;;;15.31;80.58;102160.66;5063215;28;61912;-76
2022/01/01 08:11:29;;;;;;;;;30.25;25.25;;;;;15.30;80.63;102157.94;5063092;28;62231;-76
2022/01/01 08:13:54;;;;;;;;;24.00;21.00;;;;;15.28;80.99;102151.69;5062449;28;62808;-76
2022/01/01 08:16:20;;;;;;;;;22.00;22.00;;;;;15.26;81.00;102154.25;5062596;28;61837;-76
2022/01/01 08:18:45;;;;;;;;;27.00;26.00;;;;;15.30;80.70;102148.25;5061743;28;61964;-76
2022/01/01 08:21:11;;;;;;;;;33.00;28.50;;;;;15.31;80.55;102150.06;5061999;28;62023;-76
2022/01/01 08:23:36;;;;;;;;;32.00;19.75;;;;;15.27;80.76;102147.22;5062063;28;61716;-76
2022/01/01 08:26:02;;;;;;;;;27.50;23.00;;;;;15.33;80.81;102151.03;5062562;28;61877;-76
2022/01/01 08:28:28;;;;;;;;;19.75;18.25;;;;;15.38;80.45;102148.63;5061367;28;62079;-76
2022/01/01 08:30:53;;;;;;;;;26.00;23.00;;;;;15.39;80.21;102146.88;5061310;28;62003;-76
2022/01/01 08:33:19;;;;;;;;;29.00;23.00;;;;;15.40;80.44;102139.00;5048525;28;63716;-76
2022/01/01 08:35:44;;;;;;;;;31.50;20.75;;;;;15.46;80.15;102146.34;5041215;28;61877;-76
2022/01/01 08:38:10;;;;;;;;;29.25;22.25;;;;;15.40;80.01;102138.09;5040851;28;61877;-76
2022/01/01 08:40:36;;;;;;;;;19.25;19.00;;;;;15.42;80.42;102142.63;5042515;28;61987;-76
2022/01/01 08:43:01;;;;;;;;;26.00;22.00;;;;;15.48;80.07;102147.31;5040631;28;63443;-76
2022/01/01 08:45:27;;;;;;;;;26.75;22.25;;;;;15.50;80.00;102146.53;5057179;28;61869;-76
2022/01/01 08:47:53;;;;;;;;;21.25;20.00;;;;;15.56;79.91;102150.31;5042636;28;62065;-76
2022/01/01 08:50:18;;;;;;;;;23.50;22.00;;;;;15.61;79.62;102151.44;5042556;28;61933;-76
2022/01/01 08:52:44;;;;;;;;;24.25;21.00;;;;;15.64;79.64;102149.84;5041512;28;62888;-76
2022/01/01 08:55:10;;;;;;;;;23.25;19.25;;;;;15.66;79.55;102145.50;5042227;28;61972;-76
2022/01/01 08:57:36;;;;;;;;;20.75;19.50;;;;;15.68;79.26;102142.91;5042182;28;61873;-76
2022/01/01 09:00:06;;;;;;;;;26.00;19.50;;;;;15.72;79.23;102143.19;5042102;28;61721;-76
2022/01/01 09:02:31;;;;;;;;;18.50;17.00;;;;;15.79;78.95;102139.06;5040162;28;63777;-76
2022/01/01 09:04:57;;;;;;;;;17.75;14.50;;;;;15.76;78.60;102144.22;5042162;28;61925;-76
2022/01/01 09:07:29;;;;;;;;;19.25;17.00;;;;;15.84;78.59;102136.63;5041669;28;61782;-76
2022/01/01 09:09:56;;;;;;;;;16.50;16.50;;;;;15.95;78.13;102140.66;5040935;28;61768;-76
2022/01/01 09:12:21;;;;;;;;;20.00;20.00;;;;;15.99;77.75;102131.09;5041613;28;61957;-76
2022/01/01 09:14:46;;;;;;;;;20.50;16.25;;;;;16.04;77.75;102111.91;5041787;28;62140;-76
2022/01/01 09:17:12;;;;;;;;;23.00;20.25;;;;;16.18;77.56;102119.56;5040497;28;61931;-76
2022/01/01 09:19:37;;;;;;;;;21.75;17.25;;;;;16.23;77.56;102107.41;5042005;28;61678;-76
2022/01/01 09:22:03;;;;;;;;;17.50;16.00;;;;;16.20;76.79;102094.94;5041239;28;61944;-76
2022/01/01 09:24:28;;;;;;;;;19.50;15.75;;;;;16.23;77.19;102094.16;5041953;28;61857;-76
2022/01/01 09:26:53;;;;;;;;;18.75;16.50;;;;;16.21;76.89;102091.44;5041801;28;62057;-76
2022/01/01 09:29:19;;;;;;;;;19.75;16.00;;;;;16.28;76.32;102088.22;5041543;28;61885;-77
2022/01/01 09:31:45;;;;;;;;;18.75;15.50;;;;;16.28;76.07;102084.66;5041122;28;62592;-76
2022/01/01 09:34:10;;;;;;;;;15.75;14.50;;;;;16.29;76.18;102090.03;5063703;28;61889;-76
2022/01/01 09:36:36;;;;;;;;;16.25;14.50;;;;;16.34;76.42;102096.41;5080484;28;61906;-76
2022/01/01 09:39:04;;;;;;;;;16.25;16.25;;;;;16.42;75.90;102099.38;5065656;28;61802;-77
2022/01/01 09:41:29;;;;;;;;;20.25;17.00;;;;;16.40;75.88;102095.75;5064680;28;62688;-77
2022/01/01 09:43:56;;;;;;;;;15.75;15.25;;;;;16.42;75.48;102099.38;5080711;28;61827;-77
2022/01/01 09:46:24;;;;;;;;;17.25;16.25;;;;;16.48;75.64;102097.00;5065680;28;61852;-76
2022/01/01 09:48:53;;;;;;;;;13.50;13.50;;;;;16.48;75.02;102093.44;5080902;28;61863;-76
2022/01/01 09:51:20;;;;;;;;;18.00;16.75;;;;;16.47;75.39;102096.91;5064805;28;61832;-76
2022/01/01 09:53:46;;;;;;;;;15.50;15.25;;;;;16.60;74.96;102103.63;5064920;28;61741;-76
2022/01/01 09:56:12;;;;;;;;;18.00;15.75;;;;;16.66;74.85;102099.47;5065201;28;62215;-76
2022/01/01 09:58:38;;;;;;;;;14.00;13.00;;;;;16.65;75.17;102096.78;5063743;28;61817;-76
2022/01/01 10:01:06;;;;;;;;;15.75;15.75;;;;;16.71;74.76;102091.72;5064536;28;61768;-76
2022/01/01 10:03:45;;;;;;;;;18.75;13.50;;;;;16.75;74.31;102089.28;5063747;28;61818;-76
2022/01/01 10:06:13;;;;;;;;;21.50;16.00;;;;;16.80;73.57;102093.84;5080694;27;61789;-76
2022/01/01 10:08:40;;;;;;;;;17.25;13.25;;;;;16.78;73.90;102101.75;5063662;28;61933;-76
2022/01/01 10:11:08;;;;;;;;;18.00;15.75;;;;;16.77;74.06;102092.88;5080194;28;64972;-76
2022/01/01 10:13:39;;;;;;;;;17.75;14.50;;;;;16.89;73.81;102092.50;5064611;28;61931;-76
2022/01/01 10:16:07;;;;;;;;;17.50;14.25;;;;;16.54;74.52;102094.59;5064792;28;61928;-76
2022/01/01 10:18:38;;;;;;;;;15.25;12.25;;;;;16.58;74.05;102090.31;5065178;28;61890;-76
2022/01/01 10:21:03;;;;;;;;;10.75;10.75;;;;;16.65;74.91;102100.34;5064187;28;62392;-76
2022/01/01 10:23:31;;;;;;;;;17.50;15.75;;;;;16.73;74.04;102100.63;5064605;28;62202;-76
2022/01/01 10:29:23;;;;;;;;;16.25;16.25;;;;;16.97;73.52;102100.75;5064851;28;61899;-76
2022/01/01 10:32:03;;;;;;;;;17.00;12.50;;;;;17.09;73.32;102095.91;5063903;28;61995;-76
2022/01/01 10:34:32;;;;;;;;;17.00;11.25;;;;;17.14;72.96;102090.81;5064591;28;61755;-76
2022/01/01 10:36:59;;;;;;;;;14.75;9.25;;;;;17.60;71.41;102091.63;5062659;28;61838;-77
2022/01/01 10:39:25;;;;;;;;;14.00;11.75;;;;;17.68;71.03;102090.16;5064658;28;61855;-76
2022/01/01 10:42:06;;;;;;;;;17.00;14.00;;;;;17.79;70.72;102089.66;5062137;28;63971;-76
2022/01/01 10:44:39;;;;;;;;;14.00;12.75;;;;;17.88;70.80;102086.47;5063772;28;61892;-76
2022/01/01 10:47:07;;;;;;;;;8.00;7.00;;;;;17.94;70.01;102086.69;5064559;28;61909;-76
2022/01/01 10:52:22;;;;;;;;;15.50;15.50;;;;;18.04;69.76;102090.59;5063532;28;62604;-77
2022/01/01 10:54:53;;;;;;;;;19.00;12.25;;;;;18.10;68.97;102092.53;5079667;27;61926;-76
2022/01/01 10:57:35;;;;;;;;;12.00;12.00;;;;;18.12;69.21;102094.41;5079350;28;61891;-77
2022/01/01 11:00:16;;;;;;;;;17.50;12.25;;;;;18.24;69.27;102093.91;5064312;28;61852;-76
2022/01/01 11:02:49;;;;;;;;;12.00;9.25;;;;;18.33;69.29;102083.59;5079071;28;64901;-77
2022/01/01 11:05:15;;;;;;;;;14.75;12.50;;;;;18.37;67.97;102095.25;5064159;28;61781;-76
2022/01/01 11:07:51;;;;;;;;;14.00;12.75;;;;;18.43;68.82;102095.44;5063994;28;61817;-77
2022/01/01 11:10:18;;;;;;;;;14.00;12.50;;;;;18.43;67.96;102097.22;5064008;28;61778;-76
2022/01/01 11:12:43;;;;;;;;;11.25;11.00;;;;;18.42;67.71;102087.41;5063256;28;61844;-77